Route Details

Aircraft Information
Group: North America Fleet
Types: B738, B752, B762, B763
Route Data
Distance: 494nm
Duration: 0h 00m
Origin METAR: KEWR 081751Z 17008KT 10SM FEW110 BKN250 11/M01 A3017 RMK AO2 SLP216 T01061006 10111 20022 56010
Dest. METAR: KCVG 081752Z 21009KT 10SM OVC034 13/02 A2993 RMK AO2 SLP132 T01330022 10133 20067 58018
Freight Data
(for Dec 8, 2023)
Load Factor:
22%
Manifested Cargo: 15,651lbs
Financial History
Total Freight: 0lbs
Average Load: 0lbs/flt
Fuel Used: 0lbs
Avg. Fuel Used: 0lbs/flt
Fuel Expense: $0
Avg. Fuel Expense: $0
Avg. Fuel Cost: $0/lbs
Total Gross Income: $0
Pilot Pay: $0
Total Expenses: $0
Total Revenue: $0
Average Revenue: $0

Capitol Logistics 441




KEWR
Newark Liberty International Airport
Newark, New Jersey
KCVG
Cincinnati/Northern Kentucky International Airport
Covington, Kentucky

Activity Log

Date Flight Route Aircraft Duration
No Flights Yet